Time;durP1;ratioP1;P1;durP2;ratioP2;P2;SDS_P1;SDS_P2;PMS_P1;PMS_P2;Temp;Humidity;BMP_temperature;BMP_pressure;BME280_temperature;BME280_humidity;BME280_pressure;Samples;Min_cycle;Max_cycle;Signal;HPM_P1;HPM_P2
2021/03/11 00:00:44;;;;;;;28.52;17.23;;;6.20;96.10;;;;;;5051616;28;20139;-89
2021/03/11 00:03:11;;;;;;;25.85;17.35;;;6.20;96.20;;;;;;5046633;28;20057;-89
2021/03/11 00:05:38;;;;;;;27.92;17.08;;;6.20;96.10;;;;;;5038146;28;20522;-88
2021/03/11 00:08:04;;;;;;;26.67;17.45;;;6.20;96.50;;;;;;5048315;28;20134;-88
2021/03/11 00:10:31;;;;;;;26.27;17.08;;;6.30;96.10;;;;;;5046818;28;20049;-89
2021/03/11 00:12:58;;;;;;;28.23;17.45;;;6.20;96.20;;;;;;5042580;28;20053;-89
2021/03/11 00:15:26;;;;;;;31.75;19.25;;;6.20;96.20;;;;;;5043006;28;20422;-88
2021/03/11 00:17:52;;;;;;;30.08;19.33;;;6.20;96.40;;;;;;5043771;28;20052;-89
2021/03/11 00:20:22;;;;;;;30.70;19.20;;;6.30;96.30;;;;;;5052492;28;20195;-90
2021/03/11 00:22:49;;;;;;;31.98;19.05;;;6.20;96.40;;;;;;5040227;28;20068;-88
2021/03/11 00:25:17;;;;;;;30.33;18.35;;;6.30;96.40;;;;;;5052116;28;20127;-89
2021/03/11 00:27:43;;;;;;;26.48;17.42;;;6.20;96.40;;;;;;5026255;28;20139;-88
2021/03/11 00:30:12;;;;;;;29.70;18.27;;;6.20;96.40;;;;;;5047881;28;20060;-87
2021/03/11 00:32:38;;;;;;;26.05;16.90;;;6.20;96.40;;;;;;5076362;28;20067;-88
2021/03/11 00:35:06;;;;;;;31.30;18.73;;;6.30;96.50;;;;;;5057258;28;20037;-88
2021/03/11 00:37:33;;;;;;;31.98;18.67;;;6.30;96.50;;;;;;5049641;28;20123;-88
2021/03/11 00:39:59;;;;;;;27.40;18.02;;;6.20;96.50;;;;;;5046842;28;20049;-89
2021/03/11 00:42:26;;;;;;;25.92;17.27;;;6.30;96.60;;;;;;5058272;28;20073;-89
2021/03/11 00:44:52;;;;;;;25.95;17.58;;;6.20;96.50;;;;;;5045741;28;20497;-89
2021/03/11 00:47:19;;;;;;;25.25;17.75;;;6.30;96.50;;;;;;5047952;28;20051;-87
2021/03/11 00:49:45;;;;;;;29.27;17.55;;;6.30;96.50;;;;;;5048142;28;20056;-89
2021/03/11 00:52:14;;;;;;;28.05;18.00;;;6.40;96.50;;;;;;5077098;28;20480;-89
2021/03/11 00:54:40;;;;;;;27.92;18.27;;;6.40;96.50;;;;;;5052274;28;20132;-88
2021/03/11 00:57:07;;;;;;;25.75;16.48;;;6.40;96.50;;;;;;5034030;28;20045;-89
2021/03/11 00:59:34;;;;;;;25.40;16.73;;;6.40;96.50;;;;;;5048756;28;20538;-88
2021/03/11 01:01:59;;;;;;;25.98;17.08;;;6.40;96.50;;;;;;5037252;28;20143;-89
2021/03/11 01:04:28;;;;;;;27.65;17.95;;;6.40;96.50;;;;;;5046327;28;20540;-89
2021/03/11 01:06:54;;;;;;;21.50;13.23;;;6.40;96.50;;;;;;5051626;28;20056;-90
2021/03/11 01:09:20;;;;;;;28.00;18.33;;;6.50;96.50;;;;;;5043452;28;20045;-89
2021/03/11 01:11:46;;;;;;;26.13;16.83;;;6.50;96.40;;;;;;5038331;28;20053;-88
2021/03/11 01:14:12;;;;;;;26.70;17.38;;;6.50;96.50;;;;;;5043228;28;20067;-90
2021/03/11 01:16:38;;;;;;;29.13;17.48;;;6.40;96.50;;;;;;5069791;28;20056;-90
2021/03/11 01:19:04;;;;;;;27.90;17.58;;;6.50;96.60;;;;;;5050671;28;20053;-89
2021/03/11 01:21:30;;;;;;;27.73;17.38;;;6.40;96.70;;;;;;5047986;28;20052;-90
2021/03/11 01:23:59;;;;;;;25.58;16.73;;;6.50;96.70;;;;;;5053616;28;20048;-89
2021/03/11 01:26:25;;;;;;;25.15;16.65;;;6.50;96.80;;;;;;5019292;28;20057;-89
2021/03/11 01:28:53;;;;;;;32.00;20.25;;;6.50;96.80;;;;;;5036316;28;20413;-88
2021/03/11 01:31:19;;;;;;;26.73;16.73;;;6.50;96.70;;;;;;5050054;28;20061;-89
2021/03/11 01:33:45;;;;;;;24.45;15.45;;;6.50;96.80;;;;;;5058803;28;20087;-88
2021/03/11 01:36:10;;;;;;;26.67;16.52;;;6.50;96.80;;;;;;5056291;28;20537;-89
2021/03/11 01:38:36;;;;;;;25.25;16.52;;;6.50;96.80;;;;;;5021054;28;20515;-89
2021/03/11 01:41:02;;;;;;;23.02;15.98;;;6.50;96.80;;;;;;5043714;28;20057;-89
2021/03/11 01:43:28;;;;;;;25.20;16.40;;;6.50;96.80;;;;;;5037920;28;20053;-90
2021/03/11 01:45:56;;;;;;;26.35;15.90;;;6.50;96.80;;;;;;5055027;28;20049;-89
2021/03/11 01:48:22;;;;;;;24.98;16.50;;;6.50;96.90;;;;;;5037210;28;20122;-89
2021/03/11 01:50:48;;;;;;;24.42;15.65;;;6.50;96.80;;;;;;5057911;28;20092;-89
2021/03/11 01:53:14;;;;;;;22.70;15.65;;;6.50;96.90;;;;;;5057586;28;20061;-88
2021/03/11 01:55:40;;;;;;;21.88;15.07;;;6.50;96.90;;;;;;5059622;28;20105;-90
2021/03/11 01:58:07;;;;;;;22.33;14.18;;;6.50;96.90;;;;;;5045162;28;20720;-89
2021/03/11 02:00:33;;;;;;;23.85;15.73;;;6.60;97.00;;;;;;5032738;28;20057;-89
2021/03/11 02:02:59;;;;;;;20.80;14.32;;;6.60;96.80;;;;;;5066034;28;20081;-89
2021/03/11 02:05:25;;;;;;;20.33;14.20;;;6.60;96.90;;;;;;5058576;28;20062;-90
2021/03/11 02:07:52;;;;;;;23.27;16.25;;;6.60;96.80;;;;;;5057406;28;20041;-90
2021/03/11 02:10:22;;;;;;;22.83;15.55;;;6.60;96.80;;;;;;5054405;28;20137;-88
2021/03/11 02:13:11;;;;;;;22.55;15.23;;;6.70;96.80;;;;;;5038312;28;20060;-88
2021/03/11 02:15:48;;;;;;;21.63;14.60;;;6.70;96.80;;;;;;5037196;28;20105;-89
2021/03/11 02:18:26;;;;;;;20.38;14.32;;;6.60;96.90;;;;;;5037820;28;20048;-87
2021/03/11 02:21:01;;;;;;;23.48;16.02;;;6.70;96.80;;;;;;5059260;28;20055;-88
2021/03/11 02:23:43;;;;;;;22.00;14.52;;;6.80;96.80;;;;;;5066555;28;20135;-88
2021/03/11 02:26:20;;;;;;;22.60;15.30;;;6.80;96.70;;;;;;5068605;28;20045;-89
2021/03/11 02:28:57;;;;;;;22.38;14.85;;;6.90;96.70;;;;;;5043956;28;20051;-88
2021/03/11 02:31:29;;;;;;;22.30;15.23;;;6.80;96.70;;;;;;5038059;28;20044;-88
2021/03/11 02:33:57;;;;;;;22.02;14.85;;;6.80;96.80;;;;;;5051027;28;20135;-90
2021/03/11 02:36:25;;;;;;;25.48;15.45;;;6.80;96.90;;;;;;5043143;28;20056;-89
2021/03/11 02:38:53;;;;;;;23.90;15.68;;;6.80;96.90;;;;;;5057816;28;20450;-89
2021/03/11 02:41:21;;;;;;;22.50;15.20;;;6.70;96.90;;;;;;5046667;28;20044;-89
2021/03/11 02:43:50;;;;;;;25.10;16.13;;;6.80;96.90;;;;;;5037144;28;20154;-88
2021/03/11 02:46:18;;;;;;;23.23;15.00;;;6.80;96.90;;;;;;5062172;28;20055;-88
2021/03/11 02:48:45;;;;;;;23.35;15.15;;;6.80;96.90;;;;;;5047755;28;20056;-87
2021/03/11 02:51:13;;;;;;;21.90;14.70;;;6.80;97.00;;;;;;5069780;28;20098;-88
2021/03/11 02:53:39;;;;;;;22.80;14.93;;;6.90;96.90;;;;;;5064910;28;20500;-88
2021/03/11 02:56:07;;;;;;;22.42;15.40;;;6.90;96.90;;;;;;5061946;28;20114;-89
2021/03/11 02:58:34;;;;;;;22.70;15.52;;;6.90;96.90;;;;;;5052317;28;20120;-87
2021/03/11 03:01:01;;;;;;;22.10;15.30;;;6.90;96.90;;;;;;5054099;28;20051;-89
2021/03/11 03:03:29;;;;;;;21.33;14.95;;;6.90;97.00;;;;;;5040823;28;20551;-88
2021/03/11 03:05:57;;;;;;;21.92;14.93;;;6.90;97.00;;;;;;5052850;28;20053;-88
2021/03/11 03:08:25;;;;;;;22.77;15.70;;;6.90;97.00;;;;;;5062182;28;20408;-87
2021/03/11 03:10:54;;;;;;;24.17;15.95;;;6.90;97.00;;;;;;5036848;28;20057;-88
2021/03/11 03:13:21;;;;;;;21.90;15.63;;;6.90;97.10;;;;;;5052005;28;20095;-89
2021/03/11 03:15:48;;;;;;;21.05;14.88;;;6.90;97.10;;;;;;5038119;28;20463;-87
2021/03/11 03:18:16;;;;;;;20.75;15.15;;;7.10;97.10;;;;;;5041690;28;20056;-88
2021/03/11 03:20:44;;;;;;;20.27;14.48;;;7.00;97.00;;;;;;5061588;28;20072;-89
2021/03/11 03:23:11;;;;;;;22.63;15.38;;;7.10;97.00;;;;;;5050803;28;20053;-88
2021/03/11 03:25:37;;;;;;;23.35;15.52;;;7.10;97.00;;;;;;5025869;28;20128;-88
2021/03/11 03:28:03;;;;;;;22.92;15.88;;;7.10;96.90;;;;;;5041537;28;20048;-87
2021/03/11 03:30:29;;;;;;;21.30;15.60;;;7.10;97.00;;;;;;5050989;28;20044;-88
2021/03/11 03:32:56;;;;;;;22.13;16.33;;;7.20;97.00;;;;;;5058083;28;20049;-88
2021/03/11 03:35:23;;;;;;;22.08;15.88;;;7.20;97.00;;;;;;5036771;28;20041;-88
2021/03/11 03:37:53;;;;;;;22.13;15.40;;;7.20;97.10;;;;;;5035376;28;20055;-89
2021/03/11 03:40:21;;;;;;;23.67;15.75;;;7.30;97.20;;;;;;5032967;28;20496;-88
2021/03/11 03:43:00;;;;;;;22.42;16.52;;;7.30;97.10;;;;;;5066959;28;20053;-89
2021/03/11 03:45:33;;;;;;;21.08;15.88;;;7.40;97.00;;;;;;5063760;28;20477;-88
2021/03/11 03:48:07;;;;;;;22.25;15.63;;;7.40;97.00;;;;;;5051319;28;21968;-89
2021/03/11 03:50:34;;;;;;;25.25;16.48;;;7.50;97.10;;;;;;5040766;28;30666;-89
2021/03/11 03:53:08;;;;;;;21.65;15.73;;;7.50;97.10;;;;;;5070801;28;20076;-89
2021/03/11 03:55:37;;;;;;;22.23;15.70;;;7.50;97.10;;;;;;5041897;28;20053;-88
2021/03/11 03:58:04;;;;;;;22.48;15.18;;;7.50;97.10;;;;;;5024809;28;20050;-89
2021/03/11 04:00:31;;;;;;;22.05;16.02;;;7.60;97.10;;;;;;5051956;28;20040;-88
2021/03/11 04:02:59;;;;;;;22.50;15.93;;;7.60;97.10;;;;;;5056734;28;20043;-88
2021/03/11 04:05:26;;;;;;;22.75;15.48;;;7.60;97.20;;;;;;5070721;28;20489;-89
2021/03/11 04:07:53;;;;;;;22.10;15.02;;;7.60;97.10;;;;;;5043717;28;20476;-89
2021/03/11 04:10:20;;;;;;;21.48;15.45;;;7.70;97.30;;;;;;5037215;28;20050;-88
2021/03/11 04:12:47;;;;;;;22.75;16.05;;;7.70;97.20;;;;;;5039370;28;20063;-87
2021/03/11 04:15:14;;;;;;;23.42;16.35;;;7.80;97.20;;;;;;5041219;28;20052;-89
2021/03/11 04:17:43;;;;;;;21.83;15.95;;;7.90;97.00;;;;;;5034831;28;20132;-88
2021/03/11 04:20:10;;;;;;;20.45;14.70;;;7.90;97.00;;;;;;5028022;28;20137;-88
2021/03/11 04:22:40;;;;;;;20.20;14.77;;;7.90;97.00;;;;;;5051500;28;20582;-90
2021/03/11 04:25:07;;;;;;;20.25;15.32;;;7.90;97.00;;;;;;5049541;28;20406;-89
2021/03/11 04:27:38;;;;;;;21.30;15.55;;;8.00;97.00;;;;;;5062760;28;20138;-89
2021/03/11 04:30:06;;;;;;;22.63;15.27;;;8.00;96.90;;;;;;5042370;28;20500;-90
2021/03/11 04:32:35;;;;;;;21.55;16.35;;;8.00;96.90;;;;;;5022216;28;20138;-89
2021/03/11 04:35:01;;;;;;;21.60;16.02;;;8.10;96.90;;;;;;5032448;28;20072;-89
2021/03/11 04:37:28;;;;;;;22.95;16.00;;;8.10;96.80;;;;;;5070850;28;20550;-90
2021/03/11 04:39:55;;;;;;;22.90;15.80;;;8.10;96.80;;;;;;5054386;28;20171;-89
2021/03/11 04:42:23;;;;;;;19.90;14.98;;;8.20;96.80;;;;;;5053032;28;20044;-89
2021/03/11 04:44:49;;;;;;;20.08;14.15;;;8.10;96.70;;;;;;5049885;28;20065;-89
2021/03/11 04:47:18;;;;;;;19.95;14.68;;;8.20;96.70;;;;;;5041008;28;20120;-89
2021/03/11 04:49:45;;;;;;;19.92;14.10;;;8.20;96.60;;;;;;5038393;28;20049;-90
2021/03/11 04:52:13;;;;;;;19.23;14.70;;;8.20;96.60;;;;;;5019664;28;20039;-89
2021/03/11 04:54:40;;;;;;;21.50;14.63;;;8.20;96.60;;;;;;5064772;28;20075;-88
2021/03/11 04:57:06;;;;;;;19.55;13.93;;;8.30;96.60;;;;;;5039441;28;20084;-89
2021/03/11 04:59:32;;;;;;;21.67;15.73;;;8.30;96.50;;;;;;5025955;28;20068;-88
2021/03/11 05:02:03;;;;;;;19.50;14.63;;;8.40;96.40;;;;;;5014068;28;20048;-88
2021/03/11 05:04:29;;;;;;;19.77;14.52;;;8.30;96.40;;;;;;5043095;28;20120;-90
2021/03/11 05:06:55;;;;;;;19.55;15.10;;;8.40;96.50;;;;;;5043474;28;20052;-89
2021/03/11 05:09:21;;;;;;;20.77;14.70;;;8.40;96.40;;;;;;5034281;28;20041;-89
2021/03/11 05:11:47;;;;;;;18.90;14.07;;;8.40;96.50;;;;;;5055896;28;20045;-89
2021/03/11 05:14:13;;;;;;;18.55;12.85;;;8.40;96.50;;;;;;5049358;28;20052;-88
2021/03/11 05:16:41;;;;;;;18.63;14.13;;;8.40;96.50;;;;;;5036038;28;20053;-88
2021/03/11 05:19:09;;;;;;;19.27;13.63;;;8.40;96.30;;;;;;5024097;28;20045;-88
2021/03/11 05:21:36;;;;;;;18.30;12.65;;;8.40;96.40;;;;;;5058632;28;20382;-88
2021/03/11 05:24:05;;;;;;;20.52;14.35;;;8.40;96.40;;;;;;5035002;28;20056;-86
2021/03/11 05:26:33;;;;;;;21.27;14.65;;;8.40;96.50;;;;;;5038327;28;20053;-87
2021/03/11 05:28:59;;;;;;;19.98;14.27;;;8.40;96.50;;;;;;5026943;28;20143;-86
2021/03/11 05:31:25;;;;;;;19.35;14.23;;;8.40;96.60;;;;;;5060460;28;20049;-85
2021/03/11 05:33:52;;;;;;;19.98;14.65;;;8.40;96.60;;;;;;5046550;28;20049;-85
2021/03/11 05:36:18;;;;;;;19.33;13.18;;;8.30;96.60;;;;;;5063236;28;20103;-85
2021/03/11 05:38:45;;;;;;;21.30;14.50;;;8.30;96.60;;;;;;5045516;28;20049;-85
2021/03/11 05:41:14;;;;;;;21.85;15.00;;;8.30;96.60;;;;;;5034850;28;20666;-87
2021/03/11 05:43:44;;;;;;;21.90;14.20;;;8.30;96.60;;;;;;5053671;28;20479;-88
2021/03/11 05:46:10;;;;;;;21.50;14.25;;;8.40;96.50;;;;;;5060549;28;20102;-87
2021/03/11 05:48:40;;;;;;;22.25;14.68;;;8.50;96.30;;;;;;5058502;28;20388;-87
2021/03/11 05:51:08;;;;;;;20.25;13.98;;;8.40;96.30;;;;;;5084224;28;20048;-88
2021/03/11 05:53:36;;;;;;;19.38;13.10;;;8.40;96.30;;;;;;5068996;28;20048;-87
2021/03/11 05:56:02;;;;;;;19.17;13.00;;;8.40;96.20;;;;;;5056839;28;20500;-87
2021/03/11 05:58:27;;;;;;;20.17;13.48;;;8.50;96.20;;;;;;5066051;28;23863;-88
2021/03/11 06:00:53;;;;;;;18.38;11.13;;;8.50;96.20;;;;;;5049267;28;20079;-87
2021/03/11 06:03:25;;;;;;;17.88;11.50;;;8.60;96.10;;;;;;5063684;28;20447;-88
2021/03/11 06:05:51;;;;;;;16.13;10.70;;;8.70;95.80;;;;;;5081760;28;20045;-87
2021/03/11 06:08:22;;;;;;;19.48;12.70;;;8.80;95.80;;;;;;5068638;28;20157;-87
2021/03/11 06:10:55;;;;;;;16.60;10.43;;;8.70;95.90;;;;;;5046168;28;20131;-88
2021/03/11 06:13:24;;;;;;;14.75;10.68;;;8.80;95.90;;;;;;5068089;28;20045;-88
2021/03/11 06:16:11;;;;;;;17.30;10.95;;;8.80;96.00;;;;;;5046067;28;20418;-88
2021/03/11 06:18:39;;;;;;;18.10;11.63;;;8.80;96.10;;;;;;5046621;28;20126;-87
2021/03/11 06:21:05;;;;;;;16.27;10.70;;;8.90;96.10;;;;;;5047088;28;20131;-87
2021/03/11 06:23:31;;;;;;;15.80;9.75;;;8.90;96.20;;;;;;5077212;28;20132;-88
2021/03/11 06:25:58;;;;;;;15.10;9.07;;;8.90;96.00;;;;;;5038289;28;20044;-89
2021/03/11 06:28:46;;;;;;;15.98;8.98;;;8.90;96.00;;;;;;5055302;28;20044;-87
2021/03/11 06:31:19;;;;;;;11.80;8.18;;;8.90;96.20;;;;;;5062999;28;20052;-88
2021/03/11 06:33:46;;;;;;;10.57;7.82;;;8.90;96.50;;;;;;5045018;28;20060;-88
2021/03/11 06:36:13;;;;;;;11.55;8.43;;;8.80;96.50;;;;;;5047472;28;20053;-88
2021/03/11 06:38:39;;;;;;;12.13;8.90;;;8.80;96.50;;;;;;5055723;28;20408;-88
2021/03/11 06:41:05;;;;;;;14.65;9.27;;;9.00;96.30;;;;;;5071382;28;20109;-87
2021/03/11 06:43:31;;;;;;;13.65;9.27;;;9.00;96.20;;;;;;5074617;28;20041;-88
2021/03/11 06:46:24;;;;;;;13.93;8.20;;;9.10;96.10;;;;;;5058188;28;20040;-88
2021/03/11 06:49:04;;;;;;;13.55;7.78;;;9.10;95.80;;;;;;5050540;28;20053;-89
2021/03/11 06:51:30;;;;;;;11.93;7.07;;;9.20;95.40;;;;;;5055927;28;20396;-87
2021/03/11 06:53:57;;;;;;;12.05;7.30;;;9.40;94.90;;;;;;5047835;28;20053;-88
2021/03/11 06:56:25;;;;;;;10.45;7.43;;;9.40;94.60;;;;;;5047539;28;20071;-87
2021/03/11 06:59:01;;;;;;;12.25;6.97;;;9.40;94.70;;;;;;5068712;28;20098;-87
2021/03/11 07:01:29;;;;;;;11.43;6.63;;;9.50;94.50;;;;;;5049497;28;20067;-87
2021/03/11 07:03:58;;;;;;;12.88;7.40;;;9.60;94.10;;;;;;5065646;28;20459;-87
2021/03/11 07:06:25;;;;;;;10.15;6.47;;;9.50;94.20;;;;;;5067862;28;20057;-87
2021/03/11 07:08:56;;;;;;;12.52;6.50;;;9.50;94.30;;;;;;5065632;28;20041;-86
2021/03/11 07:11:23;;;;;;;12.73;7.07;;;9.80;93.30;;;;;;5050316;28;20044;-87
2021/03/11 07:13:49;;;;;;;12.32;6.80;;;9.80;93.00;;;;;;5066424;28;20048;-86
2021/03/11 07:16:18;;;;;;;11.75;7.13;;;9.70;93.20;;;;;;5064713;28;20055;-86
2021/03/11 07:18:44;;;;;;;11.52;6.10;;;9.60;93.60;;;;;;5052406;28;20079;-88
2021/03/11 07:21:11;;;;;;;13.40;7.55;;;9.60;93.40;;;;;;5047880;28;20049;-88
2021/03/11 07:23:46;;;;;;;13.68;6.93;;;9.60;93.30;;;;;;5043374;28;20512;-87
2021/03/11 07:26:12;;;;;;;16.37;7.30;;;9.90;92.70;;;;;;5065297;28;20124;-87
2021/03/11 07:28:38;;;;;;;13.77;6.78;;;9.80;92.70;;;;;;5030468;28;20053;-87
2021/03/11 07:31:04;;;;;;;14.93;7.97;;;9.90;92.60;;;;;;5031133;28;20079;-87
2021/03/11 07:33:33;;;;;;;16.02;7.82;;;9.80;93.10;;;;;;5056789;28;20056;-87
2021/03/11 07:36:01;;;;;;;16.67;7.90;;;9.60;93.50;;;;;;5045792;28;20045;-88
2021/03/11 07:38:29;;;;;;;14.23;6.53;;;9.70;93.30;;;;;;5060416;28;20400;-90
2021/03/11 07:41:03;;;;;;;17.45;8.00;;;9.80;92.50;;;;;;5033537;28;20456;-88
2021/03/11 07:43:31;;;;;;;16.27;7.28;;;9.80;92.90;;;;;;5018068;28;20138;-88
2021/03/11 07:46:18;;;;;;;20.65;6.95;;;9.80;92.70;;;;;;5029689;28;20051;-87
2021/03/11 07:48:44;;;;;;;15.83;5.97;;;10.00;91.60;;;;;;5060516;28;20412;-88
2021/03/11 07:51:11;;;;;;;15.65;5.00;;;10.10;91.40;;;;;;5045915;28;20052;-90
2021/03/11 07:53:40;;;;;;;21.58;6.07;;;10.20;90.60;;;;;;5053002;28;20419;-87
2021/03/11 07:56:08;;;;;;;17.10;6.10;;;10.10;90.70;;;;;;5044963;28;20056;-87
2021/03/11 07:58:34;;;;;;;18.30;6.00;;;10.10;90.70;;;;;;5021761;28;20051;-87
2021/03/11 08:01:04;;;;;;;14.90;4.70;;;10.10;90.80;;;;;;5033878;28;20471;-87
2021/03/11 08:03:31;;;;;;;23.40;5.70;;;10.00;90.80;;;;;;5064149;28;20044;-88
2021/03/11 08:06:21;;;;;;;22.40;5.00;;;10.30;89.40;;;;;;5075073;28;20045;-87
2021/03/11 08:08:48;;;;;;;22.75;5.25;;;10.10;89.50;;;;;;5032868;28;20057;-88
2021/03/11 08:11:35;;;;;;;18.95;4.68;;;10.10;90.00;;;;;;5047969;28;20053;-87
2021/03/11 08:14:23;;;;;;;16.42;4.35;;;10.20;88.90;;;;;;5034949;28;20057;-87
2021/03/11 08:16:50;;;;;;;20.92;4.80;;;10.40;87.40;;;;;;5062763;28;20040;-88
2021/03/11 08:19:42;;;;;;;20.02;4.75;;;10.30;87.10;;;;;;5064899;28;20048;-87
2021/03/11 08:22:08;;;;;;;28.08;5.20;;;10.40;86.10;;;;;;5048053;28;20124;-89
2021/03/11 08:24:47;;;;;;;24.00;5.78;;;10.30;86.30;;;;;;5048025;28;20190;-87
2021/03/11 08:27:43;;;;;;;25.55;4.95;;;10.40;84.50;;;;;;5054501;28;20056;-86
2021/03/11 08:30:38;;;;;;;26.45;5.50;;;10.50;83.80;;;;;;5065719;28;20045;-88
2021/03/11 08:33:14;;;;;;;32.95;6.40;;;10.50;84.10;;;;;;5053123;28;20044;-88
2021/03/11 08:35:51;;;;;;;27.40;5.95;;;10.60;83.60;;;;;;5065067;28;20060;-87
2021/03/11 08:38:23;;;;;;;31.63;6.20;;;10.60;82.20;;;;;;5050452;28;20049;-87
2021/03/11 08:40:58;;;;;;;32.92;6.57;;;10.60;83.60;;;;;;5051922;28;20045;-87
2021/03/11 08:43:41;;;;;;;31.77;6.40;;;10.70;82.00;;;;;;5044985;28;20103;-87
2021/03/11 08:46:11;;;;;;;34.45;6.70;;;10.70;82.40;;;;;;5040151;28;20059;-88
2021/03/11 08:48:57;;;;;;;26.08;5.93;;;10.70;82.90;;;;;;5066697;28;20058;-87
2021/03/11 08:51:23;;;;;;;32.55;7.78;;;10.80;82.00;;;;;;5033088;28;20636;-87
2021/03/11 08:54:02;;;;;;;40.13;8.27;;;10.90;80.70;;;;;;5068619;28;20076;-87
2021/03/11 08:56:28;;;;;;;32.58;7.93;;;10.90;81.80;;;;;;5056174;28;20400;-87
2021/03/11 08:58:55;;;;;;;33.25;6.90;;;10.90;81.00;;;;;;5047228;28;20045;-88
2021/03/11 09:01:50;;;;;;;35.25;7.88;;;11.00;80.00;;;;;;5044128;28;20076;-88
2021/03/11 09:04:27;;;;;;;40.53;7.87;;;11.00;80.90;;;;;;5057644;28;20166;-89
2021/03/11 09:07:03;;;;;;;34.45;9.02;;;11.00;80.70;;;;;;5060266;28;20056;-88
2021/03/11 09:09:49;;;;;;;34.60;7.80;;;11.00;80.70;;;;;;5063371;28;20456;-90
2021/03/11 09:12:21;;;;;;;35.92;8.02;;;11.00;81.00;;;;;;5028589;28;20044;-89
2021/03/11 09:14:59;;;;;;;26.00;7.15;;;11.00;81.20;;;;;;5027338;28;20056;-88
2021/03/11 09:17:27;;;;;;;32.83;8.95;;;11.10;80.20;;;;;;5065785;28;20208;-87
2021/03/11 09:20:02;;;;;;;30.23;6.30;;;11.20;80.50;;;;;;5052913;28;20791;-89
2021/03/11 09:22:38;;;;;;;41.45;8.40;;;11.20;80.50;;;;;;5027753;28;20052;-89
2021/03/11 09:25:04;;;;;;;29.20;5.75;;;11.20;80.80;;;;;;5068629;28;20084;-88
2021/03/11 09:27:31;;;;;;;21.92;5.65;;;11.30;78.50;;;;;;5057894;28;20507;-89
2021/03/11 09:30:02;;;;;;;33.45;6.07;;;11.20;79.30;;;;;;5066746;28;20044;-88
2021/03/11 09:32:33;;;;;;;31.95;7.60;;;11.10;79.80;;;;;;5058287;28;20052;-87
2021/03/11 09:35:09;;;;;;;32.25;6.97;;;11.00;79.60;;;;;;5060229;28;20123;-87
2021/03/11 09:37:59;;;;;;;22.70;5.72;;;11.00;79.10;;;;;;5078918;28;20301;-87
2021/03/11 09:40:41;;;;;;;40.15;7.82;;;11.00;78.40;;;;;;5032385;28;20210;-87
2021/03/11 09:43:11;;;;;;;35.40;6.18;;;10.80;80.60;;;;;;5058113;28;20155;-86
2021/03/11 09:45:50;;;;;;;34.03;6.35;;;10.80;79.80;;;;;;5044158;28;20045;-86
2021/03/11 09:48:53;;;;;;;26.20;6.28;;;10.70;80.40;;;;;;5070582;28;20081;-85
2021/03/11 09:51:27;;;;;;;37.95;7.82;;;10.70;80.40;;;;;;4982311;28;20050;-86
2021/03/11 09:53:54;;;;;;;35.67;7.38;;;10.60;81.10;;;;;;5048928;28;20504;-86
2021/03/11 09:56:44;;;;;;;36.53;7.97;;;10.60;80.40;;;;;;5061673;28;20053;-86
2021/03/11 09:59:13;;;;;;;32.95;6.55;;;10.50;81.90;;;;;;5060414;28;20118;-86
2021/03/11 10:01:42;;;;;;;42.10;8.20;;;10.50;82.80;;;;;;5062240;28;20381;-85
2021/03/11 10:04:13;;;;;;;28.27;6.85;;;10.30;84.10;;;;;;5061557;28;20068;-86
2021/03/11 10:06:50;;;;;;;31.13;5.95;;;10.30;83.90;;;;;;5065299;28;20049;-86
2021/03/11 10:09:16;;;;;;;41.65;8.30;;;10.10;86.20;;;;;;5064089;28;20045;-85
2021/03/11 10:11:54;;;;;;;37.05;6.65;;;10.00;86.70;;;;;;5068280;28;20049;-85
2021/03/11 10:14:26;;;;;;;38.75;8.23;;;9.80;87.60;;;;;;5054424;28;20500;-86
2021/03/11 10:16:54;;;;;;;38.25;7.47;;;9.70;88.40;;;;;;5079525;28;20481;-85
2021/03/11 10:19:29;;;;;;;27.30;6.13;;;9.70;87.70;;;;;;5047813;28;20055;-85
2021/03/11 10:21:58;;;;;;;;;;;9.70;88.50;;;;;;5047914;28;20044;-84
2021/03/11 10:24:32;;;;;;;35.08;7.38;;;9.50;90.20;;;;;;5043729;28;19998;-85
2021/03/11 10:26:58;;;;;;;29.02;6.55;;;9.60;90.00;;;;;;5043081;28;20050;-84
2021/03/11 10:29:29;;;;;;;34.80;7.35;;;9.60;90.20;;;;;;5039392;28;20045;-85
2021/03/11 10:32:00;;;;;;;30.65;6.65;;;9.50;90.60;;;;;;5041386;28;20056;-85
2021/03/11 10:34:26;;;;;;;21.05;4.80;;;9.50;90.70;;;;;;5075053;28;20041;-85
2021/03/11 10:36:57;;;;;;;30.48;6.82;;;9.40;90.70;;;;;;5064876;28;20047;-84
2021/03/11 10:39:24;;;;;;;21.48;5.22;;;9.20;91.20;;;;;;5063844;28;20624;-84
2021/03/11 10:42:02;;;;;;;30.55;5.70;;;9.20;91.60;;;;;;5064761;28;20045;-84
2021/03/11 10:44:30;;;;;;;31.25;6.07;;;9.20;91.50;;;;;;5063494;28;20100;-84
2021/03/11 10:47:18;;;;;;;28.38;6.93;;;9.20;91.40;;;;;;5082320;28;20052;-84
2021/03/11 10:49:45;;;;;;;30.05;6.78;;;9.00;91.80;;;;;;5065388;28;20468;-84
2021/03/11 10:52:12;;;;;;;30.60;6.35;;;9.10;91.80;;;;;;5073322;28;20054;-84
2021/03/11 10:54:41;;;;;;;25.02;5.72;;;8.90;92.20;;;;;;5066817;28;20049;-84
2021/03/11 10:57:18;;;;;;;28.17;5.90;;;9.00;91.80;;;;;;5065910;28;20056;-84
2021/03/11 10:59:49;;;;;;;36.10;6.72;;;9.00;91.80;;;;;;5056319;28;20491;-84
2021/03/11 11:02:16;;;;;;;40.22;7.53;;;8.90;92.10;;;;;;5065467;28;20119;-83
2021/03/11 11:04:42;;;;;;;35.92;6.88;;;8.90;91.90;;;;;;5082773;28;20158;-83
2021/03/11 11:07:08;;;;;;;36.08;7.03;;;8.80;92.50;;;;;;5067648;28;20472;-84
2021/03/11 11:09:34;;;;;;;30.05;6.28;;;8.90;92.10;;;;;;5083649;28;20056;-85
2021/03/11 11:12:01;;;;;;;27.88;5.90;;;9.00;91.80;;;;;;5082648;28;20131;-86
2021/03/11 11:14:27;;;;;;;26.27;6.47;;;9.00;91.70;;;;;;5052919;28;20051;-86
2021/03/11 11:16:53;;;;;;;22.42;4.80;;;9.00;91.30;;;;;;5056437;28;20049;-85
2021/03/11 11:19:19;;;;;;;32.25;5.93;;;9.10;91.20;;;;;;5062156;28;20550;-84
2021/03/11 11:21:45;;;;;;;31.67;7.07;;;9.00;91.60;;;;;;5071304;28;20051;-84
2021/03/11 11:24:11;;;;;;;27.70;6.18;;;9.00;91.60;;;;;;5043085;28;20057;-87
2021/03/11 11:26:36;;;;;;;22.38;4.40;;;9.00;91.90;;;;;;5029140;28;20454;-84
2021/03/11 11:29:05;;;;;;;23.30;5.80;;;9.00;91.50;;;;;;5044711;28;20053;-84
2021/03/11 11:31:32;;;;;;;25.48;6.05;;;9.00;91.40;;;;;;5070044;28;20526;-88
2021/03/11 11:33:58;;;;;;;25.33;5.53;;;9.20;91.20;;;;;;5052373;28;20057;-84
2021/03/11 11:36:24;;;;;;;38.45;7.10;;;9.10;91.40;;;;;;5049294;28;20496;-86
2021/03/11 11:38:51;;;;;;;29.67;6.20;;;9.10;91.30;;;;;;5048326;28;20037;-85
2021/03/11 11:41:18;;;;;;;27.90;5.70;;;9.10;91.50;;;;;;5044666;28;20417;-86
2021/03/11 11:43:45;;;;;;;16.63;4.28;;;9.10;91.10;;;;;;5074960;28;20114;-85
2021/03/11 11:46:11;;;;;;;22.48;4.68;;;9.30;90.60;;;;;;5041561;28;20061;-90
2021/03/11 11:48:37;;;;;;;25.95;4.65;;;9.30;90.60;;;;;;5030344;28;20128;-86
2021/03/11 11:51:04;;;;;;;30.50;5.00;;;9.40;90.40;;;;;;5027407;28;20067;-86
2021/03/11 11:53:30;;;;;;;23.80;4.70;;;9.50;90.20;;;;;;5039219;28;20049;-85
2021/03/11 11:55:56;;;;;;;28.48;5.95;;;9.40;90.60;;;;;;5052885;28;20059;-86
2021/03/11 11:58:22;;;;;;;17.98;3.88;;;9.40;90.90;;;;;;5058651;28;20052;-86
2021/03/11 12:00:49;;;;;;;21.85;4.80;;;9.40;90.20;;;;;;5057852;28;20064;-84
2021/03/11 12:03:15;;;;;;;22.13;5.05;;;9.30;90.40;;;;;;5057474;28;20154;-85
2021/03/11 12:05:41;;;;;;;17.15;4.00;;;9.50;89.40;;;;;;5054428;28;20532;-83
2021/03/11 12:08:08;;;;;;;18.60;4.50;;;9.60;88.50;;;;;;5044522;28;20053;-82
2021/03/11 12:10:34;;;;;;;27.95;5.40;;;9.70;88.20;;;;;;5068061;28;20523;-84
2021/03/11 12:13:01;;;;;;;18.13;4.50;;;9.70;88.00;;;;;;5062809;28;20256;-83
2021/03/11 12:15:27;;;;;;;23.67;4.60;;;9.80;86.70;;;;;;5041967;28;20493;-83
2021/03/11 12:17:53;;;;;;;17.38;4.07;;;9.90;87.40;;;;;;5054573;28;20055;-85
2021/03/11 12:20:19;;;;;;;21.70;4.03;;;9.90;86.30;;;;;;5054568;28;20565;-83
2021/03/11 12:22:45;;;;;;;17.77;4.15;;;9.90;86.60;;;;;;5057046;28;20049;-83
2021/03/11 12:25:11;;;;;;;17.83;3.88;;;9.80;87.30;;;;;;5042382;28;20052;-84
2021/03/11 12:27:37;;;;;;;17.35;3.97;;;9.90;87.00;;;;;;5059072;28;20084;-83
2021/03/11 12:30:03;;;;;;;21.17;4.38;;;10.00;86.60;;;;;;5054758;28;20084;-84
2021/03/11 12:32:29;;;;;;;12.40;2.53;;;10.10;85.30;;;;;;5071274;28;20565;-83
2021/03/11 12:34:55;;;;;;;14.35;3.42;;;10.10;85.20;;;;;;5053453;28;20128;-85
2021/03/11 12:37:21;;;;;;;12.25;3.55;;;10.10;84.50;;;;;;5041419;28;20043;-83
2021/03/11 12:39:46;;;;;;;10.07;2.92;;;10.20;83.40;;;;;;5052402;28;20053;-83
2021/03/11 12:42:12;;;;;;;9.55;2.65;;;10.30;82.80;;;;;;5048336;28;20092;-84
2021/03/11 12:44:38;;;;;;;14.98;3.53;;;10.30;82.80;;;;;;5050618;28;20076;-83
2021/03/11 12:47:04;;;;;;;19.00;3.38;;;10.30;82.50;;;;;;5051271;28;20166;-85
2021/03/11 12:49:30;;;;;;;10.57;2.90;;;10.30;83.00;;;;;;5052725;28;20071;-83
2021/03/11 12:51:56;;;;;;;15.27;3.22;;;10.30;82.30;;;;;;5050524;28;20484;-85